sensor_id;sensor_type;location;lat;lon;timestamp;temperature;humidity
60860;DHT22;46694;54.382;9.708;2023-02-10T00:02:01;4.80;99.90
60860;DHT22;46694;54.382;9.708;2023-02-10T00:04:40;4.80;99.90
60860;DHT22;46694;54.382;9.708;2023-02-10T00:07:19;4.70;99.90
60860;DHT22;46694;54.382;9.708;2023-02-10T00:09:59;4.70;99.90
60860;DHT22;46694;54.382;9.708;2023-02-10T00:12:39;4.70;99.90
60860;DHT22;46694;54.382;9.708;2023-02-10T00:15:18;4.70;99.90
60860;DHT22;46694;54.382;9.708;2023-02-10T00:17:57;4.60;99.90
60860;DHT22;46694;54.382;9.708;2023-02-10T00:20:37;4.60;99.90
60860;DHT22;46694;54.382;9.708;2023-02-10T00:23:17;4.60;99.90
60860;DHT22;46694;54.382;9.708;2023-02-10T00:25:57;4.60;99.90
60860;DHT22;46694;54.382;9.708;2023-02-10T00:28:36;4.60;99.90
60860;DHT22;46694;54.382;9.708;2023-02-10T00:31:16;4.60;99.90
60860;DHT22;46694;54.382;9.708;2023-02-10T00:34:00;4.60;99.90
60860;DHT22;46694;54.382;9.708;2023-02-10T00:36:40;4.60;99.90
60860;DHT22;46694;54.382;9.708;2023-02-10T00:39:19;4.60;99.90
60860;DHT22;46694;54.382;9.708;2023-02-10T00:41:59;4.60;99.90
60860;DHT22;46694;54.382;9.708;2023-02-10T00:44:39;4.60;99.90
60860;DHT22;46694;54.382;9.708;2023-02-10T00:47:18;4.70;99.90
60860;DHT22;46694;54.382;9.708;2023-02-10T00:49:58;4.70;99.90
60860;DHT22;46694;54.382;9.708;2023-02-10T00:52:37;4.70;99.90
60860;DHT22;46694;54.382;9.708;2023-02-10T00:55:17;4.70;99.90
60860;DHT22;46694;54.382;9.708;2023-02-10T00:58:21;4.70;99.90
60860;DHT22;46694;54.382;9.708;2023-02-10T01:01:01;4.70;99.90
60860;DHT22;46694;54.382;9.708;2023-02-10T01:03:41;4.70;99.90
60860;DHT22;46694;54.382;9.708;2023-02-10T01:06:20;4.70;99.90
60860;DHT22;46694;54.382;9.708;2023-02-10T01:09:00;4.80;99.90
60860;DHT22;46694;54.382;9.708;2023-02-10T01:11:39;4.80;99.90
60860;DHT22;46694;54.382;9.708;2023-02-10T01:14:19;4.80;99.90
60860;DHT22;46694;54.382;9.708;2023-02-10T01:16:58;4.80;99.90
60860;DHT22;46694;54.382;9.708;2023-02-10T01:19:38;4.90;99.90
60860;DHT22;46694;54.382;9.708;2023-02-10T01:22:18;4.90;99.90
60860;DHT22;46694;54.382;9.708;2023-02-10T01:24:57;4.90;99.90
60860;DHT22;46694;54.382;9.708;2023-02-10T01:27:37;4.90;99.90
60860;DHT22;46694;54.382;9.708;2023-02-10T01:30:16;4.90;99.90
60860;DHT22;46694;54.382;9.708;2023-02-10T01:32:56;5.00;99.90
60860;DHT22;46694;54.382;9.708;2023-02-10T01:35:37;5.00;99.90
60860;DHT22;46694;54.382;9.708;2023-02-10T01:38:17;5.00;99.90
60860;DHT22;46694;54.382;9.708;2023-02-10T01:40:57;5.10;99.90
60860;DHT22;46694;54.382;9.708;2023-02-10T01:46:57;5.10;99.90
60860;DHT22;46694;54.382;9.708;2023-02-10T01:49:41;5.10;99.90
60860;DHT22;46694;54.382;9.708;2023-02-10T01:52:24;5.20;99.90
60860;DHT22;46694;54.382;9.708;2023-02-10T01:55:13;5.20;99.90
60860;DHT22;46694;54.382;9.708;2023-02-10T01:57:54;5.20;99.90
60860;DHT22;46694;54.382;9.708;2023-02-10T02:00:35;5.20;99.90
60860;DHT22;46694;54.382;9.708;2023-02-10T02:03:15;5.20;99.90
60860;DHT22;46694;54.382;9.708;2023-02-10T02:05:54;5.30;99.90
60860;DHT22;46694;54.382;9.708;2023-02-10T02:08:34;5.30;99.90
60860;DHT22;46694;54.382;9.708;2023-02-10T02:14:43;5.30;99.90
60860;DHT22;46694;54.382;9.708;2023-02-10T02:26:32;5.30;99.90
60860;DHT22;46694;54.382;9.708;2023-02-10T02:32:14;5.30;99.90
60860;DHT22;46694;54.382;9.708;2023-02-10T02:35:02;5.30;99.90
60860;DHT22;46694;54.382;9.708;2023-02-10T02:37:44;5.30;99.90
60860;DHT22;46694;54.382;9.708;2023-02-10T02:40:25;5.40;99.90
60860;DHT22;46694;54.382;9.708;2023-02-10T02:43:05;5.40;99.90
60860;DHT22;46694;54.382;9.708;2023-02-10T02:49:29;5.30;99.90
60860;DHT22;46694;54.382;9.708;2023-02-10T02:52:24;5.30;99.90
60860;DHT22;46694;54.382;9.708;2023-02-10T02:55:50;5.30;99.90
60860;DHT22;46694;54.382;9.708;2023-02-10T03:01:34;5.30;99.90
60860;DHT22;46694;54.382;9.708;2023-02-10T03:04:16;5.30;99.90
60860;DHT22;46694;54.382;9.708;2023-02-10T03:06:56;5.30;99.90
60860;DHT22;46694;54.382;9.708;2023-02-10T03:09:36;5.30;99.90
60860;DHT22;46694;54.382;9.708;2023-02-10T03:12:16;5.30;99.90
60860;DHT22;46694;54.382;9.708;2023-02-10T03:14:55;5.30;99.90
60860;DHT22;46694;54.382;9.708;2023-02-10T03:17:35;5.30;99.90
60860;DHT22;46694;54.382;9.708;2023-02-10T03:20:14;5.30;99.90
60860;DHT22;46694;54.382;9.708;2023-02-10T03:22:54;5.30;99.90
60860;DHT22;46694;54.382;9.708;2023-02-10T03:25:40;5.30;99.90
60860;DHT22;46694;54.382;9.708;2023-02-10T03:28:20;5.30;99.90
60860;DHT22;46694;54.382;9.708;2023-02-10T03:31:07;5.30;99.90
60860;DHT22;46694;54.382;9.708;2023-02-10T03:33:46;5.30;99.90
60860;DHT22;46694;54.382;9.708;2023-02-10T03:36:26;5.30;99.90
60860;DHT22;46694;54.382;9.708;2023-02-10T03:39:06;5.30;99.90
60860;DHT22;46694;54.382;9.708;2023-02-10T03:41:45;5.30;99.90
60860;DHT22;46694;54.382;9.708;2023-02-10T03:44:25;5.30;99.90
60860;DHT22;46694;54.382;9.708;2023-02-10T03:47:04;5.30;99.90
60860;DHT22;46694;54.382;9.708;2023-02-10T03:49:44;5.30;99.90
60860;DHT22;46694;54.382;9.708;2023-02-10T03:52:24;5.40;99.90
60860;DHT22;46694;54.382;9.708;2023-02-10T03:55:04;5.30;99.90
60860;DHT22;46694;54.382;9.708;2023-02-10T03:57:44;5.30;99.90
60860;DHT22;46694;54.382;9.708;2023-02-10T04:00:23;5.30;99.90
60860;DHT22;46694;54.382;9.708;2023-02-10T04:03:03;5.30;99.90
60860;DHT22;46694;54.382;9.708;2023-02-10T04:05:43;5.30;99.90
60860;DHT22;46694;54.382;9.708;2023-02-10T04:08:22;5.30;99.90
60860;DHT22;46694;54.382;9.708;2023-02-10T04:11:02;5.30;99.90
60860;DHT22;46694;54.382;9.708;2023-02-10T04:13:42;5.40;99.90
60860;DHT22;46694;54.382;9.708;2023-02-10T04:16:22;5.40;99.90
60860;DHT22;46694;54.382;9.708;2023-02-10T04:19:06;5.40;99.90
60860;DHT22;46694;54.382;9.708;2023-02-10T04:21:45;5.40;99.90
60860;DHT22;46694;54.382;9.708;2023-02-10T04:24:25;5.40;99.90
60860;DHT22;46694;54.382;9.708;2023-02-10T04:27:04;5.40;99.90
60860;DHT22;46694;54.382;9.708;2023-02-10T04:29:44;5.40;99.90
60860;DHT22;46694;54.382;9.708;2023-02-10T04:32:23;5.50;99.90
60860;DHT22;46694;54.382;9.708;2023-02-10T04:35:03;5.50;99.90
60860;DHT22;46694;54.382;9.708;2023-02-10T04:37:43;5.50;99.90
60860;DHT22;46694;54.382;9.708;2023-02-10T04:40:22;5.50;99.90
60860;DHT22;46694;54.382;9.708;2023-02-10T04:43:02;5.50;99.90
60860;DHT22;46694;54.382;9.708;2023-02-10T04:45:42;5.50;99.90
60860;DHT22;46694;54.382;9.708;2023-02-10T04:48:21;5.50;99.90
60860;DHT22;46694;54.382;9.708;2023-02-10T04:51:07;5.50;99.90
60860;DHT22;46694;54.382;9.708;2023-02-10T04:53:47;5.60;99.90
60860;DHT22;46694;54.382;9.708;2023-02-10T04:56:27;5.50;99.90
60860;DHT22;46694;54.382;9.708;2023-02-10T04:59:06;5.60;99.90
60860;DHT22;46694;54.382;9.708;2023-02-10T05:01:46;5.60;99.90
60860;DHT22;46694;54.382;9.708;2023-02-10T05:04:25;5.60;99.90
60860;DHT22;46694;54.382;9.708;2023-02-10T05:07:05;5.60;99.90
60860;DHT22;46694;54.382;9.708;2023-02-10T05:09:44;5.60;99.90
60860;DHT22;46694;54.382;9.708;2023-02-10T05:12:24;5.60;99.90
60860;DHT22;46694;54.382;9.708;2023-02-10T05:15:04;5.60;99.90
60860;DHT22;46694;54.382;9.708;2023-02-10T05:17:43;5.60;99.90
60860;DHT22;46694;54.382;9.708;2023-02-10T05:20:23;5.60;99.90
60860;DHT22;46694;54.382;9.708;2023-02-10T05:23:02;5.70;99.90
60860;DHT22;46694;54.382;9.708;2023-02-10T05:25:42;5.70;99.90
60860;DHT22;46694;54.382;9.708;2023-02-10T05:28:31;5.70;99.90
60860;DHT22;46694;54.382;9.708;2023-02-10T05:31:10;5.70;99.90
60860;DHT22;46694;54.382;9.708;2023-02-10T05:33:50;5.70;99.90
60860;DHT22;46694;54.382;9.708;2023-02-10T05:36:29;5.70;99.90
60860;DHT22;46694;54.382;9.708;2023-02-10T05:39:09;5.70;99.90
60860;DHT22;46694;54.382;9.708;2023-02-10T05:42:04;5.70;99.90
60860;DHT22;46694;54.382;9.708;2023-02-10T05:44:44;5.70;99.90
60860;DHT22;46694;54.382;9.708;2023-02-10T05:47:24;5.80;99.90
60860;DHT22;46694;54.382;9.708;2023-02-10T05:50:03;5.80;99.90
60860;DHT22;46694;54.382;9.708;2023-02-10T05:52:43;5.70;99.90
60860;DHT22;46694;54.382;9.708;2023-02-10T05:55:23;5.80;99.90
60860;DHT22;46694;54.382;9.708;2023-02-10T05:58:06;5.80;99.90
60860;DHT22;46694;54.382;9.708;2023-02-10T06:00:46;5.70;99.90
60860;DHT22;46694;54.382;9.708;2023-02-10T06:03:25;5.80;99.90
60860;DHT22;46694;54.382;9.708;2023-02-10T06:06:05;5.80;99.90
60860;DHT22;46694;54.382;9.708;2023-02-10T06:08:44;5.80;99.90
60860;DHT22;46694;54.382;9.708;2023-02-10T06:11:24;5.80;99.90
60860;DHT22;46694;54.382;9.708;2023-02-10T06:14:04;5.80;99.90
60860;DHT22;46694;54.382;9.708;2023-02-10T06:16:43;5.80;99.90
60860;DHT22;46694;54.382;9.708;2023-02-10T06:19:23;5.80;99.90
60860;DHT22;46694;54.382;9.708;2023-02-10T06:22:04;5.70;99.90
60860;DHT22;46694;54.382;9.708;2023-02-10T06:24:45;5.80;99.90
60860;DHT22;46694;54.382;9.708;2023-02-10T06:27:24;5.80;99.90
60860;DHT22;46694;54.382;9.708;2023-02-10T06:30:04;5.80;99.90
60860;DHT22;46694;54.382;9.708;2023-02-10T06:32:44;5.80;99.90
60860;DHT22;46694;54.382;9.708;2023-02-10T06:35:24;5.70;99.90
60860;DHT22;46694;54.382;9.708;2023-02-10T06:38:05;5.70;99.90
60860;DHT22;46694;54.382;9.708;2023-02-10T06:40:44;5.80;99.90
60860;DHT22;46694;54.382;9.708;2023-02-10T06:43:24;5.80;99.90
60860;DHT22;46694;54.382;9.708;2023-02-10T06:46:04;5.80;99.90
60860;DHT22;46694;54.382;9.708;2023-02-10T06:48:43;5.80;99.90
60860;DHT22;46694;54.382;9.708;2023-02-10T06:51:23;5.80;99.90
60860;DHT22;46694;54.382;9.708;2023-02-10T06:54:03;5.80;99.90
60860;DHT22;46694;54.382;9.708;2023-02-10T06:56:42;5.80;99.90
60860;DHT22;46694;54.382;9.708;2023-02-10T06:59:24;5.90;99.90
60860;DHT22;46694;54.382;9.708;2023-02-10T07:02:04;5.90;99.90
60860;DHT22;46694;54.382;9.708;2023-02-10T07:04:43;5.90;99.90
60860;DHT22;46694;54.382;9.708;2023-02-10T07:07:23;5.90;99.90
60860;DHT22;46694;54.382;9.708;2023-02-10T07:10:03;5.90;99.90
60860;DHT22;46694;54.382;9.708;2023-02-10T07:12:58;5.90;99.90
60860;DHT22;46694;54.382;9.708;2023-02-10T07:15:38;5.90;99.90
60860;DHT22;46694;54.382;9.708;2023-02-10T07:18:18;5.90;99.90
60860;DHT22;46694;54.382;9.708;2023-02-10T07:20:57;5.90;99.90
60860;DHT22;46694;54.382;9.708;2023-02-10T07:23:37;5.90;99.90
60860;DHT22;46694;54.382;9.708;2023-02-10T07:26:17;5.90;99.90
60860;DHT22;46694;54.382;9.708;2023-02-10T07:28:59;5.90;99.90
60860;DHT22;46694;54.382;9.708;2023-02-10T07:31:39;5.90;99.90
60860;DHT22;46694;54.382;9.708;2023-02-10T07:34:19;5.90;99.90
60860;DHT22;46694;54.382;9.708;2023-02-10T07:37:00;5.90;99.90
60860;DHT22;46694;54.382;9.708;2023-02-10T07:39:39;5.90;99.90
60860;DHT22;46694;54.382;9.708;2023-02-10T07:42:19;5.90;99.90
60860;DHT22;46694;54.382;9.708;2023-02-10T07:44:58;5.90;99.90
60860;DHT22;46694;54.382;9.708;2023-02-10T07:47:38;5.90;99.90
60860;DHT22;46694;54.382;9.708;2023-02-10T07:50:18;6.00;99.90
60860;DHT22;46694;54.382;9.708;2023-02-10T07:52:57;6.00;99.90
60860;DHT22;46694;54.382;9.708;2023-02-10T07:55:37;5.90;99.90
60860;DHT22;46694;54.382;9.708;2023-02-10T07:58:17;6.00;99.90
60860;DHT22;46694;54.382;9.708;2023-02-10T08:00:56;6.00;99.90
60860;DHT22;46694;54.382;9.708;2023-02-10T08:03:36;6.10;99.90
60860;DHT22;46694;54.382;9.708;2023-02-10T08:06:20;6.10;99.90
60860;DHT22;46694;54.382;9.708;2023-02-10T08:09:00;6.10;99.90
60860;DHT22;46694;54.382;9.708;2023-02-10T08:11:40;6.10;99.90
60860;DHT22;46694;54.382;9.708;2023-02-10T08:14:20;6.10;99.90
60860;DHT22;46694;54.382;9.708;2023-02-10T08:17:00;6.10;99.90
60860;DHT22;46694;54.382;9.708;2023-02-10T08:19:39;6.10;99.90
60860;DHT22;46694;54.382;9.708;2023-02-10T08:22:19;6.10;99.90
60860;DHT22;46694;54.382;9.708;2023-02-10T08:24:59;6.20;99.90
60860;DHT22;46694;54.382;9.708;2023-02-10T08:27:38;6.20;99.90
60860;DHT22;46694;54.382;9.708;2023-02-10T08:30:18;6.20;99.90
60860;DHT22;46694;54.382;9.708;2023-02-10T08:32:58;6.20;99.90
60860;DHT22;46694;54.382;9.708;2023-02-10T08:35:39;6.20;99.90
60860;DHT22;46694;54.382;9.708;2023-02-10T08:38:19;6.20;99.90
60860;DHT22;46694;54.382;9.708;2023-02-10T08:40:59;6.20;99.90
60860;DHT22;46694;54.382;9.708;2023-02-10T08:43:38;6.20;99.90
60860;DHT22;46694;54.382;9.708;2023-02-10T08:46:18;6.20;99.90
60860;DHT22;46694;54.382;9.708;2023-02-10T08:48:57;6.30;99.90
60860;DHT22;46694;54.382;9.708;2023-02-10T08:51:39;6.30;99.90
60860;DHT22;46694;54.382;9.708;2023-02-10T08:54:19;6.30;99.90
60860;DHT22;46694;54.382;9.708;2023-02-10T08:57:02;6.30;99.90
60860;DHT22;46694;54.382;9.708;2023-02-10T08:59:42;6.30;99.90
60860;DHT22;46694;54.382;9.708;2023-02-10T09:02:22;6.40;99.90
60860;DHT22;46694;54.382;9.708;2023-02-10T09:05:02;6.40;99.90
60860;DHT22;46694;54.382;9.708;2023-02-10T09:07:41;6.50;99.90
60860;DHT22;46694;54.382;9.708;2023-02-10T09:10:21;6.50;99.90
60860;DHT22;46694;54.382;9.708;2023-02-10T09:13:00;6.50;99.90
60860;DHT22;46694;54.382;9.708;2023-02-10T09:15:41;6.50;99.90
60860;DHT22;46694;54.382;9.708;2023-02-10T09:18:21;6.60;99.90
60860;DHT22;46694;54.382;9.708;2023-02-10T09:21:01;6.60;99.90
60860;DHT22;46694;54.382;9.708;2023-02-10T09:23:41;6.70;99.90
60860;DHT22;46694;54.382;9.708;2023-02-10T09:26:20;6.70;99.90
60860;DHT22;46694;54.382;9.708;2023-02-10T09:29:00;6.70;99.90
60860;DHT22;46694;54.382;9.708;2023-02-10T09:31:40;6.80;99.90
60860;DHT22;46694;54.382;9.708;2023-02-10T09:34:20;6.80;99.90
60860;DHT22;46694;54.382;9.708;2023-02-10T09:36:59;6.80;99.90
60860;DHT22;46694;54.382;9.708;2023-02-10T09:39:41;6.80;99.90
60860;DHT22;46694;54.382;9.708;2023-02-10T09:45:25;6.90;99.90
60860;DHT22;46694;54.382;9.708;2023-02-10T09:51:36;6.90;99.90
60860;DHT22;46694;54.382;9.708;2023-02-10T09:54:23;7.00;99.90
60860;DHT22;46694;54.382;9.708;2023-02-10T09:57:04;7.10;99.90
60860;DHT22;46694;54.382;9.708;2023-02-10T09:59:49;7.20;99.90
60860;DHT22;46694;54.382;9.708;2023-02-10T10:02:35;7.30;99.90
60860;DHT22;46694;54.382;9.708;2023-02-10T10:05:38;7.40;99.90
60860;DHT22;46694;54.382;9.708;2023-02-10T10:11:48;7.40;99.90
60860;DHT22;46694;54.382;9.708;2023-02-10T10:14:37;7.40;99.90
60860;DHT22;46694;54.382;9.708;2023-02-10T10:26:55;7.30;99.90
60860;DHT22;46694;54.382;9.708;2023-02-10T10:29:55;7.30;99.90
60860;DHT22;46694;54.382;9.708;2023-02-10T10:32:45;7.30;99.90
60860;DHT22;46694;54.382;9.708;2023-02-10T10:35:41;7.30;99.90
60860;DHT22;46694;54.382;9.708;2023-02-10T10:38:25;7.30;99.90
60860;DHT22;46694;54.382;9.708;2023-02-10T10:41:14;7.30;99.90
60860;DHT22;46694;54.382;9.708;2023-02-10T10:43:55;7.30;99.90
60860;DHT22;46694;54.382;9.708;2023-02-10T10:46:39;7.30;99.90
60860;DHT22;46694;54.382;9.708;2023-02-10T10:49:28;7.30;99.90
60860;DHT22;46694;54.382;9.708;2023-02-10T10:52:30;7.40;99.90
60860;DHT22;46694;54.382;9.708;2023-02-10T10:55:24;7.40;99.90
60860;DHT22;46694;54.382;9.708;2023-02-10T11:01:03;7.40;99.90
60860;DHT22;46694;54.382;9.708;2023-02-10T11:03:44;7.30;99.90
60860;DHT22;46694;54.382;9.708;2023-02-10T11:06:24;7.30;99.90
60860;DHT22;46694;54.382;9.708;2023-02-10T11:09:07;7.30;99.90
60860;DHT22;46694;54.382;9.708;2023-02-10T11:12:06;7.40;99.90
60860;DHT22;46694;54.382;9.708;2023-02-10T11:14:55;7.40;99.90
60860;DHT22;46694;54.382;9.708;2023-02-10T11:17:39;7.40;99.90
60860;DHT22;46694;54.382;9.708;2023-02-10T11:20:26;7.40;99.90
60860;DHT22;46694;54.382;9.708;2023-02-10T11:23:15;7.40;99.90
60860;DHT22;46694;54.382;9.708;2023-02-10T11:26:04;7.40;99.90
60860;DHT22;46694;54.382;9.708;2023-02-10T11:28:45;7.40;99.90
60860;DHT22;46694;54.382;9.708;2023-02-10T11:31:29;7.50;99.90
60860;DHT22;46694;54.382;9.708;2023-02-10T11:34:27;7.50;99.90
60860;DHT22;46694;54.382;9.708;2023-02-10T11:37:11;7.60;99.90
60860;DHT22;46694;54.382;9.708;2023-02-10T11:39:54;7.70;99.90
60860;DHT22;46694;54.382;9.708;2023-02-10T11:42:35;7.70;99.90
60860;DHT22;46694;54.382;9.708;2023-02-10T11:48:16;7.80;99.90
60860;DHT22;46694;54.382;9.708;2023-02-10T11:51:02;7.80;99.90
60860;DHT22;46694;54.382;9.708;2023-02-10T11:53:44;7.80;99.90
60860;DHT22;46694;54.382;9.708;2023-02-10T12:00:52;7.90;99.90
60860;DHT22;46694;54.382;9.708;2023-02-10T12:14:47;8.10;99.90
60860;DHT22;46694;54.382;9.708;2023-02-10T12:29:33;7.90;99.90
60860;DHT22;46694;54.382;9.708;2023-02-10T12:38:31;7.70;99.90
60860;DHT22;46694;54.382;9.708;2023-02-10T12:53:35;7.80;99.90
60860;DHT22;46694;54.382;9.708;2023-02-10T12:56:49;7.80;99.90
60860;DHT22;46694;54.382;9.708;2023-02-10T12:59:43;7.80;99.90
60860;DHT22;46694;54.382;9.708;2023-02-10T13:02:52;7.70;99.90
60860;DHT22;46694;54.382;9.708;2023-02-10T13:05:45;7.70;99.90
60860;DHT22;46694;54.382;9.708;2023-02-10T13:08:36;7.70;99.90
60860;DHT22;46694;54.382;9.708;2023-02-10T13:11:39;7.70;99.90
60860;DHT22;46694;54.382;9.708;2023-02-10T13:14:40;7.80;99.90
60860;DHT22;46694;54.382;9.708;2023-02-10T13:17:21;7.80;99.90
60860;DHT22;46694;54.382;9.708;2023-02-10T13:20:08;7.80;99.90
60860;DHT22;46694;54.382;9.708;2023-02-10T13:23:00;7.80;99.90
60860;DHT22;46694;54.382;9.708;2023-02-10T13:26:02;7.80;99.90
60860;DHT22;46694;54.382;9.708;2023-02-10T13:35:25;7.60;99.90
60860;DHT22;46694;54.382;9.708;2023-02-10T13:38:14;7.60;99.90
60860;DHT22;46694;54.382;9.708;2023-02-10T13:40:56;7.50;99.90
60860;DHT22;46694;54.382;9.708;2023-02-10T13:43:56;7.40;99.90
60860;DHT22;46694;54.382;9.708;2023-02-10T13:46:36;7.40;99.90
60860;DHT22;46694;54.382;9.708;2023-02-10T13:49:17;7.40;99.90
60860;DHT22;46694;54.382;9.708;2023-02-10T13:52:16;7.30;99.90
60860;DHT22;46694;54.382;9.708;2023-02-10T13:58:23;7.30;99.90
60860;DHT22;46694;54.382;9.708;2023-02-10T14:01:38;7.30;99.90
60860;DHT22;46694;54.382;9.708;2023-02-10T14:06:58;7.20;99.90
60860;DHT22;46694;54.382;9.708;2023-02-10T14:09:37;7.20;99.90
60860;DHT22;46694;54.382;9.708;2023-02-10T14:12:26;7.20;99.90
60860;DHT22;46694;54.382;9.708;2023-02-10T14:15:39;7.20;99.90
60860;DHT22;46694;54.382;9.708;2023-02-10T14:18:31;7.20;99.90
60860;DHT22;46694;54.382;9.708;2023-02-10T14:21:15;7.10;99.90
60860;DHT22;46694;54.382;9.708;2023-02-10T14:23:56;7.10;99.90
60860;DHT22;46694;54.382;9.708;2023-02-10T14:26:37;7.10;99.90
60860;DHT22;46694;54.382;9.708;2023-02-10T14:29:21;7.10;99.90
60860;DHT22;46694;54.382;9.708;2023-02-10T14:32:04;7.10;99.90
60860;DHT22;46694;54.382;9.708;2023-02-10T14:35:17;7.10;99.90
60860;DHT22;46694;54.382;9.708;2023-02-10T14:38:00;7.10;99.90
60860;DHT22;46694;54.382;9.708;2023-02-10T14:40:43;7.10;99.90
60860;DHT22;46694;54.382;9.708;2023-02-10T14:43:31;7.10;99.90
60860;DHT22;46694;54.382;9.708;2023-02-10T14:46:20;7.00;99.90
60860;DHT22;46694;54.382;9.708;2023-02-10T14:49:13;7.00;99.90
60860;DHT22;46694;54.382;9.708;2023-02-10T14:51:57;7.00;99.90
60860;DHT22;46694;54.382;9.708;2023-02-10T14:54:38;7.00;99.90
60860;DHT22;46694;54.382;9.708;2023-02-10T14:57:21;6.90;99.90
60860;DHT22;46694;54.382;9.708;2023-02-10T15:00:04;6.90;99.90
60860;DHT22;46694;54.382;9.708;2023-02-10T15:02:57;6.90;99.90
60860;DHT22;46694;54.382;9.708;2023-02-10T15:05:45;6.90;99.90
60860;DHT22;46694;54.382;9.708;2023-02-10T15:11:40;6.90;99.90
60860;DHT22;46694;54.382;9.708;2023-02-10T15:17:38;6.90;99.90
60860;DHT22;46694;54.382;9.708;2023-02-10T15:20:22;6.90;99.90
60860;DHT22;46694;54.382;9.708;2023-02-10T15:23:12;6.90;99.90
60860;DHT22;46694;54.382;9.708;2023-02-10T15:26:16;6.90;99.90
60860;DHT22;46694;54.382;9.708;2023-02-10T15:29:13;6.90;99.90
60860;DHT22;46694;54.382;9.708;2023-02-10T15:31:57;6.90;99.90
60860;DHT22;46694;54.382;9.708;2023-02-10T15:34:37;6.80;99.90
60860;DHT22;46694;54.382;9.708;2023-02-10T15:37:26;6.80;99.90
60860;DHT22;46694;54.382;9.708;2023-02-10T15:40:23;6.80;99.90
60860;DHT22;46694;54.382;9.708;2023-02-10T15:46:26;6.80;99.90
60860;DHT22;46694;54.382;9.708;2023-02-10T15:49:10;6.80;99.90
60860;DHT22;46694;54.382;9.708;2023-02-10T15:51:53;6.80;99.90
60860;DHT22;46694;54.382;9.708;2023-02-10T15:54:34;6.80;99.90
60860;DHT22;46694;54.382;9.708;2023-02-10T15:57:17;6.80;99.90
60860;DHT22;46694;54.382;9.708;2023-02-10T15:59:57;6.80;99.90
60860;DHT22;46694;54.382;9.708;2023-02-10T16:02:37;6.80;99.90
60860;DHT22;46694;54.382;9.708;2023-02-10T16:05:16;6.80;99.90
60860;DHT22;46694;54.382;9.708;2023-02-10T16:08:18;6.80;99.90
60860;DHT22;46694;54.382;9.708;2023-02-10T16:10:59;6.80;99.90
60860;DHT22;46694;54.382;9.708;2023-02-10T16:13:39;6.80;99.90
60860;DHT22;46694;54.382;9.708;2023-02-10T16:16:19;6.80;99.90
60860;DHT22;46694;54.382;9.708;2023-02-10T16:18:58;6.80;99.90
60860;DHT22;46694;54.382;9.708;2023-02-10T16:21:38;6.80;99.90
60860;DHT22;46694;54.382;9.708;2023-02-10T16:24:19;6.80;99.90
60860;DHT22;46694;54.382;9.708;2023-02-10T16:26:59;6.70;99.90
60860;DHT22;46694;54.382;9.708;2023-02-10T16:29:39;6.70;99.90
60860;DHT22;46694;54.382;9.708;2023-02-10T16:32:18;6.70;99.90
60860;DHT22;46694;54.382;9.708;2023-02-10T16:34:58;6.70;99.90
60860;DHT22;46694;54.382;9.708;2023-02-10T16:37:38;6.70;99.90
60860;DHT22;46694;54.382;9.708;2023-02-10T16:40:25;6.70;99.90
60860;DHT22;46694;54.382;9.708;2023-02-10T16:43:05;6.60;99.90
60860;DHT22;46694;54.382;9.708;2023-02-10T16:45:45;6.60;99.90
60860;DHT22;46694;54.382;9.708;2023-02-10T16:48:25;6.60;99.90
60860;DHT22;46694;54.382;9.708;2023-02-10T16:51:04;6.60;99.90
60860;DHT22;46694;54.382;9.708;2023-02-10T16:53:44;6.60;99.90
60860;DHT22;46694;54.382;9.708;2023-02-10T16:56:24;6.50;99.90
60860;DHT22;46694;54.382;9.708;2023-02-10T16:59:05;6.50;99.90
60860;DHT22;46694;54.382;9.708;2023-02-10T17:01:46;6.50;99.90
60860;DHT22;46694;54.382;9.708;2023-02-10T17:04:26;6.50;99.90
60860;DHT22;46694;54.382;9.708;2023-02-10T17:07:05;6.50;99.90
60860;DHT22;46694;54.382;9.708;2023-02-10T17:09:45;6.40;99.90
60860;DHT22;46694;54.382;9.708;2023-02-10T17:12:25;6.40;99.90
60860;DHT22;46694;54.382;9.708;2023-02-10T17:15:05;6.30;99.90
60860;DHT22;46694;54.382;9.708;2023-02-10T17:17:45;6.30;99.90
60860;DHT22;46694;54.382;9.708;2023-02-10T17:20:28;6.30;99.90
60860;DHT22;46694;54.382;9.708;2023-02-10T17:23:09;6.30;99.90
60860;DHT22;46694;54.382;9.708;2023-02-10T17:25:50;6.30;99.90
60860;DHT22;46694;54.382;9.708;2023-02-10T17:28:30;6.30;99.90
60860;DHT22;46694;54.382;9.708;2023-02-10T17:31:18;6.30;99.90
60860;DHT22;46694;54.382;9.708;2023-02-10T17:33:59;6.30;99.90
60860;DHT22;46694;54.382;9.708;2023-02-10T17:36:38;6.30;99.90
60860;DHT22;46694;54.382;9.708;2023-02-10T17:39:19;6.30;99.90
60860;DHT22;46694;54.382;9.708;2023-02-10T17:42:05;6.30;99.90
60860;DHT22;46694;54.382;9.708;2023-02-10T17:44:44;6.20;99.90
60860;DHT22;46694;54.382;9.708;2023-02-10T17:47:23;6.20;99.90
60860;DHT22;46694;54.382;9.708;2023-02-10T17:50:03;6.20;99.90
60860;DHT22;46694;54.382;9.708;2023-02-10T17:52:43;6.20;99.90
60860;DHT22;46694;54.382;9.708;2023-02-10T17:55:23;6.20;99.90
60860;DHT22;46694;54.382;9.708;2023-02-10T17:58:02;6.20;99.90
60860;DHT22;46694;54.382;9.708;2023-02-10T18:00:42;6.20;99.90
60860;DHT22;46694;54.382;9.708;2023-02-10T18:03:22;6.20;99.90
60860;DHT22;46694;54.382;9.708;2023-02-10T18:06:02;6.20;99.90
60860;DHT22;46694;54.382;9.708;2023-02-10T18:08:42;6.20;99.90
60860;DHT22;46694;54.382;9.708;2023-02-10T18:11:22;6.10;99.90
60860;DHT22;46694;54.382;9.708;2023-02-10T18:14:02;6.10;99.90
60860;DHT22;46694;54.382;9.708;2023-02-10T18:16:42;6.10;99.90
60860;DHT22;46694;54.382;9.708;2023-02-10T18:19:21;6.10;99.90
60860;DHT22;46694;54.382;9.708;2023-02-10T18:22:01;6.20;99.90
60860;DHT22;46694;54.382;9.708;2023-02-10T18:24:41;6.20;99.90
60860;DHT22;46694;54.382;9.708;2023-02-10T18:27:20;6.20;99.90
60860;DHT22;46694;54.382;9.708;2023-02-10T18:30:00;6.20;99.90
60860;DHT22;46694;54.382;9.708;2023-02-10T18:32:40;6.20;99.90
60860;DHT22;46694;54.382;9.708;2023-02-10T18:35:22;6.20;99.90
60860;DHT22;46694;54.382;9.708;2023-02-10T18:38:03;6.20;99.90
60860;DHT22;46694;54.382;9.708;2023-02-10T18:40:46;6.20;99.90
60860;DHT22;46694;54.382;9.708;2023-02-10T18:43:30;6.20;99.90
60860;DHT22;46694;54.382;9.708;2023-02-10T18:46:10;6.30;99.90
60860;DHT22;46694;54.382;9.708;2023-02-10T18:48:49;6.20;99.90
60860;DHT22;46694;54.382;9.708;2023-02-10T18:51:29;6.30;99.90
60860;DHT22;46694;54.382;9.708;2023-02-10T18:54:11;6.30;99.90
60860;DHT22;46694;54.382;9.708;2023-02-10T18:56:50;6.30;99.90
60860;DHT22;46694;54.382;9.708;2023-02-10T18:59:29;6.30;99.90
60860;DHT22;46694;54.382;9.708;2023-02-10T19:02:12;6.30;99.90
60860;DHT22;46694;54.382;9.708;2023-02-10T19:04:51;6.30;99.90
60860;DHT22;46694;54.382;9.708;2023-02-10T19:07:31;6.30;99.90
60860;DHT22;46694;54.382;9.708;2023-02-10T19:10:11;6.30;99.90
60860;DHT22;46694;54.382;9.708;2023-02-10T19:12:52;6.30;99.90
60860;DHT22;46694;54.382;9.708;2023-02-10T19:15:31;6.30;99.90
60860;DHT22;46694;54.382;9.708;2023-02-10T19:18:11;6.30;99.90
60860;DHT22;46694;54.382;9.708;2023-02-10T19:20:51;6.30;99.90
60860;DHT22;46694;54.382;9.708;2023-02-10T19:23:30;6.30;99.90